Impacts METAR Board
IDs:

KBWI - Baltimore-Washington, MD, US

Updated at: 1300 UTC 13 Dec 2018
Potential Impact None Slight Moderate High
Time 13/01Z 13/02Z 13/03Z 13/04Z 13/05Z 13/06Z 13/07Z 13/08Z 13/09Z 13/10Z 13/11Z 13/12Z 13/13Z
Temp37 35 36 36 34 37 37 37 38 39 39 39 39
Dewpt27 26 26 26 27 28 31 33 33 33 31 32 31
Altim30.18 30.18 30.20 30.20 30.19 30.19 30.20 30.20 30.20 30.21 30.22 30.24 30.26
VIS9 9 10 10 9 10 10 7 8 10 10 10 10
CIG250 160 160 250 250 90 65 60 60 60 60 60 75
CoverBKNOVCBKNBKNBKNOVCOVCOVCOVCOVCOVCOVCBKN
FltCatVFRVFRVFRVFRVFRVFRVFRVFRVFRVFRVFRVFRVFR
WX--------------------------
WDir130140150000307080014000
WSpd4 4 4 0 0 0 3 4 3 0 3 0 0
WGst-- -- -- -- -- -- -- -- -- -- -- -- --
Raw hourly METARs
KBWI 130054Z 13004KT 9SM FEW160 BKN250 03/M03 A3018 RMK AO2 SLP222 T00281028
KBWI 130154Z 14004KT 9SM BKN160 OVC250 02/M03 A3018 RMK AO2 SLP222 T00171033
KBWI 130254Z 15004KT 10SM BKN160 BKN250 02/M03 A3020 RMK AO2 SLP226 T00221033 53004
KBWI 130354Z 00000KT 10SM FEW160 BKN250 02/M03 A3020 RMK AO2 SLP228 T00221033
KBWI 130454Z 00000KT 9SM SCT070 SCT160 BKN250 01/M03 A3019 RMK AO2 SLP225 T00111028 400781006
KBWI 130554Z 00000KT 10SM SCT070 BKN090 BKN190 OVC250 03/M02 A3019 RMK AO2 SLP223 T00281022 10039 20000 58003
KBWI 130654Z 03003KT 10SM BKN065 OVC090 03/M01 A3020 RMK AO2 SLP227 T00281006
KBWI 130754Z 07004KT 7SM BKN060 OVC090 03/01 A3020 RMK AO2 SLP226 T00280006
KBWI 130854Z 08003KT 8SM OVC060 03/01 A3020 RMK AO2 SLP227 T00330006 51004
KBWI 130954Z 00000KT 10SM OVC060 04/01 A3021 RMK AO2 SLP229 T00390006
KBWI 131054Z 14003KT 10SM OVC060 04/M01 A3022 RMK AO2 SLP234 T00391006
KBWI 131154Z 00000KT 10SM OVC060 04/00 A3024 RMK AO2 SLP241 T00390000 10044 20028 53015
KBWI 131254Z 00000KT 10SM BKN075 04/M01 A3026 RMK AO2 SLP247 T00391006



Page loaded:  13:33 UTC  |   05:33 AM Pacific  |   06:33 AM Mountain  |   07:33 AM Central  |   08:33 AM Eastern

 

ADVISORIES

FORECASTS

FORECASTS

OBSERVATIONS

USER TOOLS

ABOUT US